• Join FlightAware (Why Join?)
  • Login
  • US Flag 
07:55PM EST


 

Airport Tracker/Info


-or-


 

Live Flight TrackerFlight Track Log ✈ ASA10 ✈ 28-Sep-2013 ✈ KSEA - KMCO

Flight Track Log - Related Links

Times and Time Zones

All times are in EDT time to prevent confusion due to time zone crossing. See the ASA10 flight status page for this flight to view local times or setup timezone preferences in your user account.

Time Position Orientation Groundspeed Altitude Reporting Facility
EDT Latitude Longitude Course Direction KTS MPH feet Rate Location/Type
12:51AM 47.4110 -122.3080 180° South 149 171 2,900  Level FlightAware
12:52AM 47.4030 -122.3090 185° South 171 197 3,100 1,020 Climbing FlightAware
12:52AM 47.3910 -122.3090 180° South 195 224 3,400 2,280 Climbing FlightAware
12:52AM 47.3700 -122.3090 180° South 207 238 4,400 2,460 Climbing FlightAware
12:52AM 47.3480 -122.3100 182° South 227 261 5,000 1,800 Climbing FlightAware
12:53AM 47.3160 -122.3000 168° South 243 280 6,000 2,460 Climbing FlightAware
12:53AM 47.2960 -122.2640 129° Southeast 293 337 7,200 2,880 Climbing FlightAware
12:53AM 47.2950 -122.2560 100° East 299 344 7,400 2,460 Climbing FlightAware
12:54AM 47.2930 -122.2400 100° East 304 350 7,700 3,000 Climbing FlightAware
12:54AM 47.3030 -122.1850 75° East 315 362 9,000 3,000 Climbing FlightAware
12:54AM 47.3120 -122.1510 69° East 318 366 9,800 2,100 Climbing FlightAware
12:55AM 47.3350 -122.0680 68° East 341 392 11,000 1,440 Climbing FlightAware
12:56AM 47.3580 -121.9860 67° East 374 430 11,700 1,320 Climbing FlightAware
12:56AM 47.3800 -121.9060 68° East 391 450 12,600 1,920 Climbing FlightAware
12:56AM 47.3850 -121.8640 80° East 388 447 13,300 2,640 Climbing FlightAware
12:57AM 47.3840 -121.7990 91° East 376 433 14,600 2,400 Climbing FlightAware
12:58AM 47.3770 -121.6770 95° East 380 437 16,400 1,920 Climbing FlightAware
12:58AM 47.3700 -121.5730 96° East 398 458 17,300 1,500 Climbing FlightAware
12:59AM 47.3650 -121.4820 95° East 415 478 18,100 1,740 Climbing FlightAware
12:59AM 47.3590 -121.3830 95° East 414 476 19,300 2,160 Climbing FlightAware
01:00AM 47.3520 -121.2810 96° East 408 470 20,700 1,800 Climbing FlightAware
01:01AM 47.3470 -121.1910 95° East 418 481 21,400 1,200 Climbing FlightAware
01:01AM 47.3400 -121.0870 96° East 433 498 22,100 1,680 Climbing FlightAware
01:02AM 47.3330 -120.9820 96° East 429 494 23,400 2,040 Climbing FlightAware
01:02AM 47.3260 -120.8780 96° East 426 490 24,600 1,740 Climbing FlightAware
01:03AM 47.3200 -120.7850 95° East 427 491 25,400 1,380 Climbing FlightAware
01:03AM 47.3120 -120.6810 96° East 431 496 26,200 1,020 Climbing FlightAware
01:04AM 47.3050 -120.5740 95° East 443 510 26,700 540 Climbing FlightAware
01:05AM 47.2970 -120.4670 96° East 460 529 26,900 300 Climbing FlightAware
01:05AM 47.2900 -120.3650 96° East 473 544 27,100 660 Climbing FlightAware
01:06AM 47.2820 -120.2490 96° East 478 550 27,700 1,140 Climbing FlightAware
01:06AM 47.2730 -120.1280 96° East 484 557 28,500 1,080 Climbing FlightAware
01:07AM 47.2650 -120.0130 96° East 492 566 29,000 780 Climbing FlightAware
01:07AM 47.2570 -119.9030 96° East 495 570 29,400 840 Climbing FlightAware
01:08AM 47.2470 -119.7820 97° East 497 572 30,000 720 Climbing FlightAware
01:09AM 47.2380 -119.6640 96° East 503 579 30,300 480 Climbing FlightAware
01:09AM 47.2290 -119.5430 96° East 513 590 30,600 780 Climbing FlightAware
01:10AM 47.2200 -119.4260 96° East 512 589 31,200 900 Climbing FlightAware
01:10AM 47.2030 -119.3090 102° East 498 573 31,700 900 Climbing FlightAware
01:11AM 47.1750 -119.2220 115° Southeast 482 555 32,200 600 Climbing FlightAware
01:12AM 47.1290 -119.1010 119° Southeast 483 556 32,500 180 Climbing FlightAware
01:12AM 47.0960 -119.0130 119° Southeast 483 556 32,500  Level FlightAware
01:13AM 47.0630 -118.9250 119° Southeast 483 556 32,500  Level FlightAware
01:13AM 47.0300 -118.8370 119° Southeast 483 556 32,500  Level FlightAware
01:14AM 46.9960 -118.7500 120° Southeast 483 556 32,500  Level FlightAware
01:15AM 46.9630 -118.6620 119° Southeast 483 556 32,500  Level FlightAware
01:15AM 46.9300 -118.5750 119° Southeast 483 556 32,500  Level FlightAware
01:16AM 46.8970 -118.4870 119° Southeast 483 556 32,500  Level FlightAware
01:16AM 46.8640 -118.4000 119° Southeast 483 556 32,500  Level FlightAware
01:17AM 46.8310 -118.3120 119° Southeast 483 556 32,500  Level FlightAware
01:18AM 46.7970 -118.2250 120° Southeast 483 556 32,500  Level FlightAware
01:18AM 46.7640 -118.1370 119° Southeast 483 556 32,500  Level FlightAware
01:19AM 46.7310 -118.0500 119° Southeast 483 556 32,500  Level FlightAware
01:19AM 46.6980 -117.9630 119° Southeast 483 556 32,500  Level FlightAware
01:20AM 46.6650 -117.8760 119° Southeast 483 556 32,500  Level FlightAware
01:21AM 46.6310 -117.7860 119° Southeast 483 556 32,500 420 Level FlightAware
01:21AM 46.5036 -117.5192 119° Southeast 476 548 33,000 420 Climbing Salt Lake Center
01:22AM 46.4636 -117.4211 121° Southeast 476 548 33,000  Level Seattle Center
01:23AM 46.3964 -117.2586 121° Southeast 475 547 33,000  Level Seattle Center
01:29AM 45.9730 -116.2380 121° Southeast 486 559 33,000  Level FlightAware
01:29AM 45.9300 -116.1390 122° Southeast 488 562 33,000  Level FlightAware
01:30AM 45.8900 -116.0480 122° Southeast 490 564 33,000  Level FlightAware
01:30AM 45.8490 -115.9510 121° Southeast 493 567 33,000  Level FlightAware
01:31AM 45.8040 -115.8440 121° Southeast 495 570 33,000  Level FlightAware
01:32AM 45.7650 -115.7550 122° Southeast 494 568 33,000  Level FlightAware
01:32AM 45.7230 -115.6580 122° Southeast 493 567 33,000  Level FlightAware
01:33AM 45.6800 -115.5580 122° Southeast 495 570 33,000  Level FlightAware
01:33AM 45.6350 -115.4560 122° Southeast 495 570 33,000  Level FlightAware
01:34AM 45.5980 -115.3700 122° Southeast 492 566 33,000  Level FlightAware
01:35AM 45.5600 -115.2800 121° Southeast 492 566 33,000  Level FlightAware
01:35AM 45.5240 -115.1950 121° Southeast 492 566 33,000  Level FlightAware
01:36AM 45.4880 -115.1100 121° Southeast 492 566 33,000  Level FlightAware
01:36AM 45.4520 -115.0240 121° Southeast 492 566 33,000  Level FlightAware
01:37AM 45.4160 -114.9390 121° Southeast 492 566 33,000  Level FlightAware
01:38AM 45.3800 -114.8540 121° Southeast 492 566 33,000  Level FlightAware
01:38AM 45.3440 -114.7690 121° Southeast 492 566 33,000  Level FlightAware
01:39AM 45.3090 -114.6840 120° Southeast 492 566 33,000  Level FlightAware
01:39AM 45.2730 -114.6000 121° Southeast 492 566 33,000  Level FlightAware
01:40AM 45.2360 -114.5120 121° Southeast 492 566 33,000  Level FlightAware
01:41AM 45.1970 -114.4210 121° Southeast 492 566 33,000  Level FlightAware
01:41AM 45.1630 -114.3410 121° Southeast 492 566 33,000  Level FlightAware
01:42AM 45.1270 -114.2560 121° Southeast 492 566 33,000  Level FlightAware
01:42AM 45.0910 -114.1710 121° Southeast 492 566 33,000  Level FlightAware
01:43AM 45.0550 -114.0870 121° Southeast 492 566 33,000  Level FlightAware
01:44AM 45.0190 -114.0020 121° Southeast 492 566 33,000  Level FlightAware
01:45AM 44.8800 -113.4980 111° Southeast 497 572 33,000  Level FlightAware
01:46AM 44.8470 -113.3600 109° East 497 572 33,000  Level FlightAware
01:46AM 44.8260 -113.2650 107° East 497 572 33,000  Level FlightAware
01:47AM 44.8040 -113.1710 108° East 497 572 33,000  Level FlightAware
01:48AM 44.7820 -113.0770 108° East 497 572 33,000  Level FlightAware
01:48AM 44.7600 -112.9820 108° East 497 572 33,000  Level FlightAware
01:49AM 44.7390 -112.8880 107° East 497 572 33,000  Level FlightAware
01:49AM 44.7170 -112.7940 108° East 497 572 33,000  Level FlightAware
01:50AM 44.6950 -112.7000 108° East 497 572 33,000  Level FlightAware
01:51AM 44.6730 -112.6030 108° East 497 572 33,000  Level FlightAware
01:51AM 44.6510 -112.5090 108° East 497 572 33,000  Level FlightAware
01:52AM 44.6290 -112.4150 108° East 497 572 33,000  Level FlightAware
01:52AM 44.6070 -112.3210 108° East 497 572 33,000  Level FlightAware
01:53AM 44.5840 -112.2220 108° East 497 572 33,000  Level FlightAware
01:54AM 44.5630 -112.1280 107° East 497 572 33,000  Level FlightAware
01:54AM 44.4530 -111.8110 116° Southeast 495 570 33,000  Level FlightAware
01:55AM 44.4180 -111.6750 110° East 495 570 33,000  Level FlightAware
01:56AM 44.3940 -111.5830 110° East 495 570 33,000  Level FlightAware
01:56AM 44.3690 -111.4880 110° East 495 570 33,000  Level FlightAware
01:57AM 44.3330 -111.3580 111° Southeast 501 577 33,000  Level FlightAware
01:57AM 44.3060 -111.2540 110° East 501 577 33,000  Level FlightAware
01:58AM 44.2810 -111.1590 110° East 501 577 33,000  Level FlightAware
01:59AM 44.2570 -111.0650 110° East 501 577 33,000  Level FlightAware
01:59AM 44.2330 -110.9720 110° East 501 577 33,000  Level FlightAware
02:00AM 44.2090 -110.8790 110° East 501 577 33,000  Level FlightAware
02:00AM 44.1840 -110.7860 111° Southeast 501 577 33,000  Level FlightAware
02:01AM 44.1230 -110.5820 113° Southeast 492 566 33,000  Level FlightAware
02:02AM 44.0990 -110.4910 110° East 492 566 33,000  Level FlightAware
02:02AM 44.0750 -110.4000 110° East 492 566 33,000  Level FlightAware
02:03AM 44.0510 -110.3090 110° East 492 566 33,000  Level FlightAware
02:04AM 44.0280 -110.2170 109° East 492 566 33,000  Level FlightAware
02:04AM 44.0040 -110.1260 110° East 492 566 33,000  Level FlightAware
02:05AM 43.9790 -110.0300 110° East 492 566 33,000  Level FlightAware
02:05AM 43.9550 -109.9400 110° East 492 566 33,000  Level FlightAware
02:06AM 43.9310 -109.8490 110° East 492 566 33,000  Level FlightAware
02:07AM 43.9070 -109.7580 110° East 492 566 33,000  Level FlightAware
02:07AM 43.8830 -109.6670 110° East 492 566 33,000  Level FlightAware
02:08AM 43.8600 -109.5760 109° East 492 566 33,000  Level FlightAware
02:08AM 43.8360 -109.4850 110° East 492 566 33,000  Level FlightAware
02:09AM 43.8120 -109.3950 110° East 492 566 33,000  Level FlightAware
02:10AM 43.7880 -109.3040 110° East 492 566 33,000  Level FlightAware
02:10AM 43.7640 -109.2110 110° East 492 566 33,000 1,020 Level FlightAware
02:12AM 43.5917 -108.7325 110° East 500 575 35,000 840 Climbing Salt Lake Center
02:13AM 43.5386 -108.5550 112° Southeast 503 579 35,000  Level Salt Lake Center
02:14AM 43.4853 -108.3781 113° Southeast 504 580 35,000  Level Salt Lake Center
02:15AM 43.4239 -108.2061 116° Southeast 503 579 35,000  Level Salt Lake Center
02:16AM 43.3558 -108.0400 119° Southeast 503 579 35,000  Level Salt Lake Center
02:17AM 43.2881 -107.8744 119° Southeast 501 577 35,000  Level Salt Lake Center
02:18AM 43.2206 -107.7122 120° Southeast 496 571 35,000  Level Salt Lake Center
02:19AM 43.1528 -107.5481 119° Southeast 496 571 35,000  Level Salt Lake Center
02:20AM 43.0839 -107.3844 120° Southeast 496 571 35,000  Level Salt Lake Center
02:21AM 43.0156 -107.2231 120° Southeast 495 570 35,000  Level Salt Lake Center
02:27AM 42.5870 -106.2210 120° Southeast 492 566 35,000  Level FlightAware
02:27AM 42.5490 -106.1320 120° Southeast 492 566 35,000  Level FlightAware
02:28AM 42.4980 -106.0150 121° Southeast 487 560 35,000  Level FlightAware
02:29AM 42.4550 -105.9180 121° Southeast 487 560 35,000  Level FlightAware
02:29AM 42.4140 -105.8270 121° Southeast 490 564 35,000  Level FlightAware
02:30AM 42.3670 -105.7190 120° Southeast 492 566 35,000  Level FlightAware
02:30AM 42.3240 -105.6210 121° Southeast 491 565 35,000  Level FlightAware
02:31AM 42.2860 -105.5370 121° Southeast 492 566 35,000  Level FlightAware
02:32AM 42.2420 -105.4400 121° Southeast 493 567 35,000  Level FlightAware
02:32AM 42.2050 -105.3580 121° Southeast 490 564 35,000  Level FlightAware
02:33AM 42.1630 -105.2640 121° Southeast 487 560 35,000  Level FlightAware
02:33AM 42.1200 -105.1680 121° Southeast 486 559 35,000  Level FlightAware
02:34AM 42.0790 -105.0780 122° Southeast 487 560 35,000  Level FlightAware
02:35AM 42.0360 -104.9820 121° Southeast 489 563 35,000  Level FlightAware
02:35AM 41.9980 -104.8990 122° Southeast 486 559 35,000  Level FlightAware
02:36AM 41.9570 -104.8090 121° Southeast 482 555 35,000  Level FlightAware
02:36AM 41.9150 -104.7180 122° Southeast 480 552 35,000  Level FlightAware
02:37AM 41.8720 -104.6240 122° Southeast 478 550 35,000  Level FlightAware
02:37AM 41.8360 -104.5460 122° Southeast 479 551 35,000  Level FlightAware
02:38AM 41.7910 -104.4480 122° Southeast 477 549 35,000  Level FlightAware
02:39AM 41.7510 -104.3630 122° Southeast 476 548 35,000  Level FlightAware
02:39AM 41.7120 -104.2800 122° Southeast 477 549 35,000  Level FlightAware
02:40AM 41.6720 -104.1920 121° Southeast 477 549 35,000  Level FlightAware
02:40AM 41.6280 -104.1000 123° Southeast 479 551 35,000  Level FlightAware
02:41AM 41.5910 -104.0190 121° Southeast 479 551 35,000  Level FlightAware
02:42AM 41.5480 -103.9260 122° Southeast 481 554 35,000  Level FlightAware
02:42AM 41.5060 -103.8380 122° Southeast 482 555 35,000  Level FlightAware
02:43AM 41.4660 -103.7530 122° Southeast 480 552 35,000  Level FlightAware
02:43AM 41.4260 -103.6700 123° Southeast 481 554 35,000  Level FlightAware
02:44AM 41.3790 -103.5730 123° Southeast 480 552 35,000  Level FlightAware
02:44AM 41.3440 -103.4980 122° Southeast 480 552 35,000  Level FlightAware
02:45AM 41.3000 -103.4060 122° Southeast 478 550 35,000  Level FlightAware
02:46AM 41.2550 -103.3120 122° Southeast 476 548 35,000  Level FlightAware
02:46AM 41.2120 -103.2230 123° Southeast 475 547 35,000  Level FlightAware
02:47AM 41.1750 -103.1450 122° Southeast 474 545 35,000  Level FlightAware
02:47AM 41.1320 -103.0590 124° Southeast 472 543 35,000  Level FlightAware
02:48AM 41.0900 -102.9650 121° Southeast 470 541 35,000  Level FlightAware
02:48AM 41.0590 -102.8830 117° Southeast 471 542 35,000  Level FlightAware
02:49AM 41.0240 -102.7870 116° Southeast 470 541 35,000  Level FlightAware
02:50AM 40.9900 -102.6970 117° Southeast 470 541 35,000  Level FlightAware
02:50AM 40.9550 -102.6040 116° Southeast 471 542 35,000  Level FlightAware
02:51AM 40.9240 -102.5180 115° Southeast 473 544 35,000  Level FlightAware
02:51AM 40.8870 -102.4230 117° Southeast 473 544 35,000  Level FlightAware
02:52AM 40.8560 -102.3400 116° Southeast 474 545 35,000  Level FlightAware
02:53AM 40.8210 -102.2490 117° Southeast 474 545 35,000  Level FlightAware
02:53AM 40.7860 -102.1560 116° Southeast 474 545 35,000  Level FlightAware
02:54AM 40.7510 -102.0630 116° Southeast 474 545 35,000  Level FlightAware
02:54AM 40.7170 -101.9750 117° Southeast 474 545 35,000  Level FlightAware
02:55AM 40.6830 -101.8850 116° Southeast 474 545 35,000  Level FlightAware
02:55AM 40.6470 -101.7920 117° Southeast 474 545 35,000  Level FlightAware
02:56AM 40.5990 -101.6680 117° Southeast 475 547 35,000  Level FlightAware
02:57AM 40.5510 -101.5400 116° Southeast 475 547 35,000  Level FlightAware
02:58AM 40.5210 -101.4600 116° Southeast 475 547 35,000  Level FlightAware
02:58AM 40.4740 -101.3470 119° Southeast 474 545 35,000  Level FlightAware
02:59AM 40.4300 -101.2310 116° Southeast 474 545 35,000  Level FlightAware
03:00AM 40.3990 -101.1530 118° Southeast 474 545 35,000  Level FlightAware
03:00AM 40.3690 -101.0740 116° Southeast 474 545 35,000  Level FlightAware
03:01AM 40.3380 -100.9960 118° Southeast 474 545 35,000  Level FlightAware
03:02AM 40.3060 -100.9130 117° Southeast 474 545 35,000  Level FlightAware
03:02AM 40.2760 -100.8350 117° Southeast 474 545 35,000  Level FlightAware
03:03AM 40.2450 -100.7560 117° Southeast 474 545 35,000  Level FlightAware
03:03AM 40.2150 -100.6780 117° Southeast 474 545 35,000  Level FlightAware
03:04AM 40.1830 -100.5980 118° Southeast 474 545 35,000  Level FlightAware
03:05AM 40.1520 -100.5170 117° Southeast 474 545 35,000  Level FlightAware
03:05AM 40.1220 -100.4390 117° Southeast 474 545 35,000  Level FlightAware
03:06AM 40.0900 -100.3590 118° Southeast 474 545 35,000  Level FlightAware
03:06AM 40.0600 -100.2810 117° Southeast 474 545 35,000  Level FlightAware
03:07AM 40.0290 -100.2030 117° Southeast 474 545 35,000  Level FlightAware
03:08AM 39.9990 -100.1240 116° Southeast 474 545 35,000  Level FlightAware
03:08AM 39.9680 -100.0460 117° Southeast 474 545 35,000  Level FlightAware
03:09AM 39.8225 -99.7681 117° Southeast 466 536 35,000  Level Denver Center
03:10AM 39.7597 -99.6189 119° Southeast 470 541 35,000  Level Denver Center
03:16AM 39.3930 -98.7700 119° Southeast 458 527 35,000  Level FlightAware
03:16AM 39.3580 -98.6880 119° Southeast 458 527 35,000  Level FlightAware
03:17AM 39.3260 -98.6150 120° Southeast 458 527 35,000  Level FlightAware
03:18AM 39.2730 -98.4980 120° Southeast 467 537 35,000  Level FlightAware
03:18AM 39.2390 -98.4200 119° Southeast 468 539 35,000  Level FlightAware
03:19AM 39.1850 -98.2980 120° Southeast 470 541 35,000  Level FlightAware
03:20AM 39.1460 -98.2110 120° Southeast 474 545 35,000  Level FlightAware
03:20AM 39.1090 -98.1270 120° Southeast 476 548 35,000  Level FlightAware
03:21AM 39.0660 -98.0310 120° Southeast 479 551 35,000  Level FlightAware
03:21AM 39.0290 -97.9520 121° Southeast 481 554 35,000  Level FlightAware
03:22AM 38.9890 -97.8600 119° Southeast 483 556 35,000  Level FlightAware
03:23AM 38.9480 -97.7700 120° Southeast 487 560 35,000  Level FlightAware
03:23AM 38.9110 -97.6900 121° Southeast 489 563 35,000  Level FlightAware
03:24AM 38.8690 -97.5970 120° Southeast 493 567 35,000  Level FlightAware
03:24AM 38.8290 -97.5080 120° Southeast 495 570 35,000  Level FlightAware
03:25AM 38.7920 -97.4270 120° Southeast 493 567 35,000  Level FlightAware
03:26AM 38.7500 -97.3340 120° Southeast 493 567 35,000  Level FlightAware
03:26AM 38.7120 -97.2510 120° Southeast 494 568 35,000  Level FlightAware
03:27AM 38.6670 -97.1550 121° Southeast 493 567 35,000  Level FlightAware
03:27AM 38.6300 -97.0750 121° Southeast 490 564 35,000  Level FlightAware
03:28AM 38.5880 -96.9830 120° Southeast 488 562 35,000  Level FlightAware
03:28AM 38.5470 -96.8960 121° Southeast 489 563 35,000  Level FlightAware
03:29AM 38.5060 -96.8060 120° Southeast 490 564 35,000  Level FlightAware
03:30AM 38.4680 -96.7270 122° Southeast 491 565 35,000  Level FlightAware
03:30AM 38.4260 -96.6340 120° Southeast 493 567 35,000  Level FlightAware
03:31AM 38.3860 -96.5490 121° Southeast 494 568 35,000  Level FlightAware
03:31AM 38.3500 -96.4740 121° Southeast 495 570 35,000  Level FlightAware
03:32AM 38.3090 -96.3870 121° Southeast 496 571 35,000  Level FlightAware
03:32AM 38.2670 -96.2970 121° Southeast 495 570 35,000  Level FlightAware
03:33AM 38.2280 -96.2140 121° Southeast 495 570 35,000  Level FlightAware
03:34AM 38.1870 -96.1270 121° Southeast 493 567 35,000  Level FlightAware
03:34AM 38.1410 -96.0310 121° Southeast 494 568 35,000  Level FlightAware
03:35AM 38.1040 -95.9540 121° Southeast 493 567 35,000  Level FlightAware
03:35AM 38.0600 -95.8620 121° Southeast 492 566 35,000  Level FlightAware
03:36AM 38.0180 -95.7760 122° Southeast 492 566 35,000  Level FlightAware
03:37AM 37.9750 -95.6880 122° Southeast 490 564 35,000  Level FlightAware
03:37AM 37.9370 -95.6090 121° Southeast 489 563 35,000  Level FlightAware
03:38AM 37.8940 -95.5190 121° Southeast 488 562 35,000  Level FlightAware
03:38AM 37.8540 -95.4360 121° Southeast 487 560 35,000  Level FlightAware
03:39AM 37.8100 -95.3470 122° Southeast 487 560 35,000  Level FlightAware
03:39AM 37.7720 -95.2690 122° Southeast 487 560 35,000  Level FlightAware
03:40AM 37.7290 -95.1790 121° Southeast 488 562 35,000  Level FlightAware
03:41AM 37.6860 -95.0920 122° Southeast 488 562 35,000  Level FlightAware
03:41AM 37.6460 -95.0100 122° Southeast 488 562 35,000  Level FlightAware
03:42AM 37.6060 -94.9300 122° Southeast 487 560 35,000  Level FlightAware
03:42AM 37.5630 -94.8430 122° Southeast 486 559 35,000  Level FlightAware
03:43AM 37.5200 -94.7570 122° Southeast 485 558 35,000  Level FlightAware
03:43AM 37.4820 -94.6800 122° Southeast 485 558 35,000  Level FlightAware
03:44AM 37.4390 -94.5920 122° Southeast 484 557 35,000  Level FlightAware
03:45AM 37.3950 -94.5060 123° Southeast 483 556 35,000  Level FlightAware
03:45AM 37.3530 -94.4230 122° Southeast 483 556 35,000  Level FlightAware
03:46AM 37.3130 -94.3420 122° Southeast 483 556 35,000  Level FlightAware
03:46AM 37.2710 -94.2590 122° Southeast 482 555 35,000  Level FlightAware
03:47AM 37.2280 -94.1740 122° Southeast 483 556 35,000  Level FlightAware
03:48AM 37.1900 -94.0960 121° Southeast 483 556 35,000  Level FlightAware
03:48AM 37.1460 -94.0100 123° Southeast 484 557 35,000  Level FlightAware
03:49AM 37.1010 -93.9230 123° Southeast 485 558 35,000  Level FlightAware
03:49AM 37.0630 -93.8470 122° Southeast 485 558 35,000  Level FlightAware
03:50AM 37.0200 -93.7620 122° Southeast 485 558 35,000  Level FlightAware
03:51AM 36.9760 -93.6770 123° Southeast 485 558 35,000  Level FlightAware
03:51AM 36.9320 -93.5920 123° Southeast 485 558 35,000  Level FlightAware
03:52AM 36.8930 -93.5140 122° Southeast 485 558 35,000  Level FlightAware
03:52AM 36.8510 -93.4360 124° Southeast 487 560 35,000  Level FlightAware
03:53AM 36.8050 -93.3440 122° Southeast 487 560 35,000  Level FlightAware
03:53AM 36.7690 -93.2750 123° Southeast 486 559 35,000  Level FlightAware
03:54AM 36.7220 -93.1840 123° Southeast 485 558 35,000  Level FlightAware
03:55AM 36.6780 -93.0990 123° Southeast 482 555 35,000  Level FlightAware
03:55AM 36.6360 -93.0200 124° Southeast 481 554 35,000  Level FlightAware
03:56AM 36.5940 -92.9390 123° Southeast 479 551 35,000  Level FlightAware
03:56AM 36.5500 -92.8560 123° Southeast 479 551 35,000  Level FlightAware
03:57AM 36.5120 -92.7820 123° Southeast 478 550 35,000  Level FlightAware
03:57AM 36.4680 -92.6990 123° Southeast 479 551 35,000  Level FlightAware
03:58AM 36.4240 -92.6150 123° Southeast 477 549 35,000  Level FlightAware
03:59AM 36.3800 -92.5320 123° Southeast 476 548 35,000  Level FlightAware
03:59AM 36.3410 -92.4610 124° Southeast 475 547 35,000  Level FlightAware
04:00AM 36.2970 -92.3770 123° Southeast 474 545 35,000  Level FlightAware
04:00AM 36.2540 -92.2960 123° Southeast 473 544 35,000  Level FlightAware
04:01AM 36.2130 -92.2190 123° Southeast 472 543 35,000  Level FlightAware
04:02AM 36.1710 -92.1400 123° Southeast 471 542 35,000  Level FlightAware
04:02AM 36.1290 -92.0640 124° Southeast 470 541 35,000  Level FlightAware
04:03AM 36.0830 -91.9790 124° Southeast 469 540 35,000  Level FlightAware
04:03AM 36.0440 -91.9050 123° Southeast 472 543 35,000  Level FlightAware
04:04AM 36.0000 -91.8240 124° Southeast 472 543 35,000  Level FlightAware
04:05AM 35.9580 -91.7460 124° Southeast 472 543 35,000  Level FlightAware
04:05AM 35.9140 -91.6650 124° Southeast 473 544 35,000  Level FlightAware
04:06AM 35.8760 -91.5960 124° Southeast 473 544 35,000  Level FlightAware
04:06AM 35.8300 -91.5120 124° Southeast 475 547 35,000  Level FlightAware
04:07AM 35.7860 -91.4290 123° Southeast 478 550 35,000  Level FlightAware
04:07AM 35.7440 -91.3550 125° Southeast 481 554 35,000  Level FlightAware
04:08AM 35.7020 -91.2770 124° Southeast 482 555 35,000  Level FlightAware
04:09AM 35.6550 -91.1930 125° Southeast 483 556 35,000  Level FlightAware
04:09AM 35.6100 -91.1110 124° Southeast 483 556 35,000  Level FlightAware
04:10AM 35.5620 -91.0230 124° Southeast 483 556 35,000  Level FlightAware
04:10AM 35.5230 -90.9520 124° Southeast 483 556 35,000  Level FlightAware
04:11AM 35.4450 -90.8140 125° Southeast 483 556 35,000  Level FlightAware
04:12AM 35.3980 -90.7280 124° Southeast 484 557 35,000  Level FlightAware
04:13AM 35.3470 -90.6380 125° Southeast 483 556 35,000  Level FlightAware
04:13AM 35.3070 -90.5650 124° Southeast 483 556 35,000  Level FlightAware
04:14AM 35.2590 -90.4800 125° Southeast 482 555 35,000  Level FlightAware
04:14AM 35.2230 -90.4170 125° Southeast 481 554 35,000  Level FlightAware
04:15AM 35.1670 -90.3180 125° Southeast 480 552 35,000  Level FlightAware
04:16AM 35.1230 -90.2400 125° Southeast 480 552 35,000  Level FlightAware
04:16AM 35.0780 -90.1600 124° Southeast 481 554 35,000  Level FlightAware
04:17AM 35.0330 -90.0820 125° Southeast 481 554 35,000  Level FlightAware
04:17AM 34.9840 -89.9970 125° Southeast 480 552 35,000  Level FlightAware
04:18AM 34.9380 -89.9140 124° Southeast 482 555 35,000  Level FlightAware
04:19AM 34.8980 -89.8450 125° Southeast 482 555 35,000  Level FlightAware
04:19AM 34.8530 -89.7650 124° Southeast 481 554 35,000  Level FlightAware
04:20AM 34.8070 -89.6860 125° Southeast 481 554 35,000  Level FlightAware
04:20AM 34.7610 -89.6060 125° Southeast 480 552 35,000  Level FlightAware
04:21AM 34.7160 -89.5280 125° Southeast 480 552 35,000  Level FlightAware
04:22AM 34.6720 -89.4530 125° Southeast 480 552 35,000  Level FlightAware
04:22AM 34.6310 -89.3820 125° Southeast 479 551 35,000  Level FlightAware
04:23AM 34.5860 -89.3030 125° Southeast 480 552 35,000  Level FlightAware
04:23AM 34.5370 -89.2200 126° Southeast 480 552 35,000  Level FlightAware
04:24AM 34.4940 -89.1470 126° Southeast 481 554 35,000  Level FlightAware
04:24AM 34.4480 -89.0680 125° Southeast 480 552 35,000  Level FlightAware
04:25AM 34.4020 -88.9910 126° Southeast 479 551 35,000  Level FlightAware
04:26AM 34.3580 -88.9140 125° Southeast 480 552 35,000  Level FlightAware
04:26AM 34.3170 -88.8440 125° Southeast 480 552 35,000  Level FlightAware
04:27AM 34.2680 -88.7610 126° Southeast 479 551 35,000  Level FlightAware
04:27AM 34.2210 -88.6830 126° Southeast 479 551 35,000  Level FlightAware
04:28AM 34.1780 -88.6110 126° Southeast 479 551 35,000  Level FlightAware
04:29AM 34.1340 -88.5350 125° Southeast 480 552 35,000  Level FlightAware
04:29AM 34.0860 -88.4540 126° Southeast 480 552 35,000  Level FlightAware
04:30AM 34.0380 -88.3730 126° Southeast 481 554 35,000  Level FlightAware
04:30AM 33.9990 -88.3080 126° Southeast 482 555 35,000  Level FlightAware
04:31AM 33.9520 -88.2290 126° Southeast 483 556 35,000  Level FlightAware
04:31AM 33.9040 -88.1490 126° Southeast 484 557 35,000  Level FlightAware
04:32AM 33.8590 -88.0730 125° Southeast 485 558 35,000  Level FlightAware
04:33AM 33.8190 -88.0050 125° Southeast 485 558 35,000  Level FlightAware
04:33AM 33.7790 -87.9360 125° Southeast 485 558 35,000  Level FlightAware
04:34AM 33.7400 -87.8680 125° Southeast 485 558 35,000  Level FlightAware
04:35AM 33.7000 -87.8010 126° Southeast 485 558 35,000  Level FlightAware
04:35AM 33.6610 -87.7330 125° Southeast 485 558 35,000  Level FlightAware
04:36AM 33.6210 -87.6650 125° Southeast 485 558 35,000  Level FlightAware
04:36AM 33.5820 -87.5980 125° Southeast 485 558 35,000  Level FlightAware
04:37AM 33.5430 -87.5300 125° Southeast 485 558 35,000  Level FlightAware
04:38AM 33.5030 -87.4630 126° Southeast 485 558 35,000  Level FlightAware
04:38AM 33.4640 -87.3950 124° Southeast 485 558 35,000  Level FlightAware
04:39AM 33.3300 -87.2050 130° Southeast 481 554 35,000  Level FlightAware
04:39AM 33.2900 -87.1400 126° Southeast 481 554 35,000  Level FlightAware
04:40AM 33.2500 -87.0740 126° Southeast 481 554 35,000  Level FlightAware
04:41AM 33.2100 -87.0080 126° Southeast 481 554 35,000  Level FlightAware
04:41AM 33.1690 -86.9400 126° Southeast 481 554 35,000  Level FlightAware
04:42AM 33.0860 -86.8120 128° Southeast 481 554 35,000  Level FlightAware
04:43AM 33.0330 -86.7260 126° Southeast 481 554 35,000  Level FlightAware
04:43AM 32.9870 -86.6530 127° Southeast 481 554 35,000  Level FlightAware
04:44AM 32.9360 -86.5730 127° Southeast 481 554 35,000  Level FlightAware
04:44AM 32.8860 -86.4930 127° Southeast 481 554 35,000  Level FlightAware
04:45AM 32.8300 -86.4040 127° Southeast 481 554 35,000  Level FlightAware
04:46AM 32.7820 -86.3270 127° Southeast 481 554 35,000  Level FlightAware
04:46AM 32.7390 -86.2600 127° Southeast 480 552 35,000  Level FlightAware
04:47AM 32.6910 -86.1840 127° Southeast 482 555 35,000  Level FlightAware
04:47AM 32.6440 -86.1100 127° Southeast 482 555 35,000  Level FlightAware
04:48AM 32.5940 -86.0310 127° Southeast 482 555 35,000  Level FlightAware
04:48AM 32.5530 -85.9660 127° Southeast 484 557 35,000  Level FlightAware
04:49AM 32.5000 -85.8830 127° Southeast 484 557 35,000  Level FlightAware
04:50AM 32.4580 -85.8180 127° Southeast 484 557 35,000  Level FlightAware
04:50AM 32.3980 -85.7250 127° Southeast 484 557 35,000  Level FlightAware
04:51AM 32.3550 -85.6570 127° Southeast 485 558 35,000  Level FlightAware
04:52AM 32.2970 -85.5660 127° Southeast 485 558 35,000  Level FlightAware
04:52AM 32.2450 -85.4860 128° Southeast 486 559 35,000  Level FlightAware
04:53AM 32.2010 -85.4180 127° Southeast 485 558 35,000  Level FlightAware
04:53AM 32.1520 -85.3430 128° Southeast 484 557 35,000  Level FlightAware
04:54AM 32.1020 -85.2650 127° Southeast 483 556 35,000  Level FlightAware
04:55AM 32.0540 -85.1890 127° Southeast 484 557 35,000  Level FlightAware
04:55AM 32.0110 -85.1250 128° Southeast 483 556 35,000  Level FlightAware
04:56AM 31.9690 -85.0580 126° Southeast 483 556 35,000  Level FlightAware
04:56AM 31.9280 -84.9940 127° Southeast 483 556 35,000  Level FlightAware
04:57AM 31.8660 -84.9030 129° Southeast 484 557 35,000  Level FlightAware
04:58AM 31.8170 -84.8270 127° Southeast 485 558 35,000  Level FlightAware
04:58AM 31.7760 -84.7620 127° Southeast 485 558 35,000  Level FlightAware
04:59AM 31.7340 -84.6980 128° Southeast 485 558 35,000  Level FlightAware
04:59AM 31.6910 -84.6300 127° Southeast 485 558 35,000  Level FlightAware
05:00AM 31.6490 -84.5650 127° Southeast 485 558 35,000  Level FlightAware
05:01AM 31.6070 -84.4990 127° Southeast 485 558 35,000  Level FlightAware
05:01AM 31.5070 -84.3580 130° Southeast 487 560 35,000  Level FlightAware
05:02AM 31.4630 -84.2900 127° Southeast 487 560 35,000  Level FlightAware
05:03AM 31.3690 -84.1830 136° Southeast 495 570 35,000  Level FlightAware
05:04AM 31.2870 -84.0970 138° Southeast 494 568 35,000  Level FlightAware
05:04AM 31.2090 -84.0170 139° Southeast 495 570 35,000  Level FlightAware
05:05AM 31.1550 -83.9620 139° Southeast 493 567 35,000  Level FlightAware
05:05AM 31.0990 -83.9030 138° Southeast 494 568 35,000  Level FlightAware
05:06AM 31.0310 -83.8320 138° Southeast 494 568 35,000  Level FlightAware
05:07AM 30.9800 -83.7790 138° Southeast 494 568 35,000  Level FlightAware
05:07AM 30.9170 -83.7130 138° Southeast 495 570 35,000  Level FlightAware
05:08AM 30.8530 -83.6480 139° Southeast 495 570 35,000  Level FlightAware
05:08AM 30.7940 -83.5860 138° Southeast 496 571 35,000  Level FlightAware
05:09AM 30.7380 -83.5290 139° Southeast 496 571 35,000  Level FlightAware
05:09AM 30.6750 -83.4630 138° Southeast 497 572 35,000  Level FlightAware
05:10AM 30.6150 -83.4010 138° Southeast 497 572 35,000  Level FlightAware
05:11AM 30.5630 -83.3480 139° Southeast 498 573 35,000  Level FlightAware
05:11AM 30.4660 -83.2510 139° Southeast 498 573 35,000  Level FlightAware
05:12AM 30.4100 -83.1930 138° Southeast 498 573 35,000  Level FlightAware
05:13AM 30.3420 -83.1240 139° Southeast 498 573 35,000  Level FlightAware
05:13AM 30.2890 -83.0690 138° Southeast 498 573 35,000  Level FlightAware
05:14AM 30.2240 -83.0040 139° Southeast 499 574 35,000  Level FlightAware
05:14AM 30.1640 -82.9420 138° Southeast 499 574 35,000  Level FlightAware
05:15AM 30.1040 -82.8820 139° Southeast 498 573 35,000 -480 Level FlightAware
05:16AM 30.0430 -82.8210 139° Southeast 495 570 34,500 -1,800 Descending FlightAware
05:16AM 29.9800 -82.7570 139° Southeast 495 570 32,900 -2,820 Descending FlightAware
05:17AM 29.9200 -82.6970 139° Southeast 499 574 31,200 -2,880 Descending FlightAware
05:17AM 29.8550 -82.6310 139° Southeast 496 571 29,500 -2,580 Descending FlightAware
05:18AM 29.8000 -82.5750 139° Southeast 489 563 28,300 -2,340 Descending FlightAware
05:18AM 29.7410 -82.5160 139° Southeast 479 551 26,900 -2,340 Descending FlightAware
05:19AM 29.6810 -82.4570 139° Southeast 469 540 25,500 -2,340 Descending FlightAware
05:20AM 29.6230 -82.3980 139° Southeast 459 528 24,200 -2,220 Descending FlightAware
05:20AM 29.5720 -82.3470 139° Southeast 450 518 23,000 -2,220 Descending FlightAware
05:21AM 29.5150 -82.2900 139° Southeast 439 505 21,700 -2,220 Descending FlightAware
05:21AM 29.4620 -82.2370 139° Southeast 429 494 20,400 -2,160 Descending FlightAware
05:22AM 29.4080 -82.1850 140° Southeast 420 483 19,200 -2,040 Descending FlightAware
05:23AM 29.3600 -82.1360 138° Southeast 411 473 18,100 -2,100 Descending FlightAware
05:23AM 29.3080 -82.0850 139° Southeast 404 465 16,800 -2,220 Descending FlightAware
05:24AM 29.2580 -82.0370 140° Southeast 395 455 15,500 -2,160 Descending FlightAware
05:24AM 29.2110 -81.9890 138° Southeast 387 445 14,300 -2,100 Descending FlightAware
05:25AM 29.1680 -81.9470 140° Southeast 379 436 13,200 -2,040 Descending FlightAware
05:25AM 29.1190 -81.8990 139° Southeast 370 426 12,000 -1,020 Descending FlightAware
05:26AM 29.0730 -81.8530 139° Southeast 348 400 12,000  Level FlightAware
05:27AM 29.0320 -81.8170 142° Southeast 348 400 12,000  Level FlightAware
05:27AM 28.9780 -81.7890 156° South 351 404 12,000  Level FlightAware
05:28AM 28.9270 -81.7620 155° Southeast 349 402 12,000 -120 Level FlightAware
05:28AM 28.8730 -81.7340 156° South 343 395 11,900 -660 Descending FlightAware
05:29AM 28.8180 -81.7050 155° Southeast 312 359 11,200 -1,380 Descending FlightAware
05:30AM 28.7710 -81.6790 154° Southeast 302 348 10,200 -1,620 Descending FlightAware
05:30AM 28.7470 -81.6660 155° Southeast 296 341 9,700 -1,800 Descending FlightAware
05:30AM 28.7210 -81.6520 155° Southeast 292 336 9,000 -1,920 Descending FlightAware
05:31AM 28.7050 -81.6430 154° Southeast 292 336 8,600 -1,740 Descending FlightAware
05:31AM 28.6800 -81.6300 155° Southeast 290 334 8,100 -1,500 Descending FlightAware
05:31AM 28.6510 -81.6150 156° South 289 333 7,500 -1,380 Descending FlightAware
05:32AM 28.6270 -81.6030 156° South 287 330 7,100 -1,380 Descending FlightAware
05:32AM 28.6030 -81.5910 156° South 284 327 6,600 -1,380 Descending FlightAware
05:32AM 28.5720 -81.5750 156° South 280 322 6,100 -840 Descending FlightAware
05:33AM 28.5500 -81.5640 156° South 274 315 6,000 -180 Descending FlightAware
05:33AM 28.5270 -81.5520 155° Southeast 270 311 6,000  Level FlightAware
05:33AM 28.5000 -81.5380 156° South 268 308 6,000  Level FlightAware
05:34AM 28.4770 -81.5260 155° Southeast 267 307 6,000 -480 Level FlightAware
05:34AM 28.4560 -81.5110 148° Southeast 267 307 5,700 -1,080 Descending FlightAware
05:34AM 28.4360 -81.4970 148° Southeast 266 306 5,300 -1,260 Descending FlightAware
05:35AM 28.4110 -81.4780 146° Southeast 262 302 4,800 -1,200 Descending FlightAware
05:35AM 28.3900 -81.4620 146° Southeast 260 299 4,400 -1,140 Descending FlightAware
05:35AM 28.3790 -81.4540 147° Southeast 259 298 4,200 -1,320 Descending FlightAware
05:36AM 28.3570 -81.4370 146° Southeast 257 296 3,700 -1,140 Descending FlightAware
05:36AM 28.3360 -81.4220 148° Southeast 251 289 3,400 -840 Descending FlightAware
05:36AM 28.3210 -81.4110 147° Southeast 245 282 3,200 -900 Descending FlightAware
05:37AM 28.3030 -81.3970 146° Southeast 234 269 2,900 -660 Descending FlightAware
05:37AM 28.2860 -81.3850 148° Southeast 226 260 2,800 -540 Descending FlightAware
05:37AM 28.2720 -81.3750 148° Southeast 218 251 2,600 -840 Descending FlightAware
05:38AM 28.2580 -81.3600 137° Southeast 202 232 2,300 -900 Descending FlightAware
05:38AM 28.2560 -81.3510 104° East 198 228 2,200 -600 Descending FlightAware
05:38AM 28.2630 -81.3300 69° East 188 216 2,000 -300 Descending FlightAware
05:39AM 28.2820 -81.3220 20° North 177 204 2,000  Level FlightAware
05:39AM 28.2880 -81.3210 North 174 200 2,000  Level FlightAware
05:39AM 28.2990 -81.3210 360° North 172 198 2,000 -240 Level FlightAware
05:39AM 28.3110 -81.3210 360° North 170 196 1,900 -240 Descending FlightAware
05:40AM 28.3380 -81.3220 358° North 169 194 1,800 -660 Descending FlightAware
05:41AM 28.3833 -81.3167 358° North 144 166 900 -1,020 Descending Orlando TRACON
05:43AM 28.4167 -81.3000 60° Northeast  Level FlightAware Approximate
05:50AM 28.4294 -81.3090 60° Northeast  Level Estimated